createdAt,value
2023-02-22T00:01:02.066Z,17.10
2023-02-22T00:03:32.515Z,16.67
2023-02-22T00:06:02.606Z,17.43
2023-02-22T00:08:31.642Z,16.97
2023-02-22T00:11:02.981Z,17.77
2023-02-22T00:13:30.184Z,17.40
2023-02-22T00:15:58.140Z,16.63
2023-02-22T00:18:27.842Z,15.70
2023-02-22T00:21:01.672Z,15.13
2023-02-22T00:23:30.376Z,16.17
2023-02-22T00:25:58.285Z,15.20
2023-02-22T00:28:24.800Z,17.90
2023-02-22T00:30:52.216Z,15.50
2023-02-22T00:33:18.716Z,16.20
2023-02-22T00:35:45.994Z,16.50
2023-02-22T00:38:14.853Z,16.60
2023-02-22T00:40:41.756Z,15.77
2023-02-22T00:43:08.489Z,16.47
2023-02-22T00:45:36.201Z,17.00
2023-02-22T00:48:04.918Z,18.17
2023-02-22T00:50:32.691Z,17.43
2023-02-22T00:53:01.329Z,16.50
2023-02-22T00:55:31.739Z,17.80
2023-02-22T00:57:59.228Z,17.70
2023-02-22T01:00:33.407Z,16.20
2023-02-22T01:03:00.143Z,15.47
2023-02-22T01:05:29.452Z,15.20
2023-02-22T01:07:57.548Z,16.73
2023-02-22T01:10:26.329Z,15.07
2023-02-22T01:12:54.485Z,15.20
2023-02-22T01:15:23.293Z,15.00
2023-02-22T01:17:52.086Z,16.60
2023-02-22T01:20:19.550Z,17.03
2023-02-22T01:22:49.383Z,16.80
2023-02-22T01:25:19.031Z,16.50
2023-02-22T01:27:45.696Z,15.90
2023-02-22T01:30:14.690Z,17.23
2023-02-22T01:32:42.466Z,16.63
2023-02-22T01:35:14.289Z,18.13
2023-02-22T01:37:42.017Z,16.93
2023-02-22T01:40:10.543Z,18.50
2023-02-22T01:42:37.267Z,17.63
2023-02-22T01:45:34.755Z,18.37
2023-02-22T01:48:21.408Z,15.87
2023-02-22T01:50:59.461Z,17.13
2023-02-22T01:53:59.709Z,15.70
2023-02-22T01:56:29.022Z,15.87
2023-02-22T01:59:03.322Z,14.83
2023-02-22T02:01:30.302Z,15.40
2023-02-22T02:03:59.825Z,15.10
2023-02-22T02:06:31.154Z,14.70
2023-02-22T02:09:04.732Z,15.80
2023-02-22T02:11:32.436Z,15.53
2023-02-22T02:13:59.065Z,15.77
2023-02-22T02:16:37.423Z,13.50
2023-02-22T02:19:12.595Z,15.03
2023-02-22T02:22:09.629Z,15.37
2023-02-22T02:24:57.578Z,13.73
2023-02-22T02:27:27.355Z,12.60
2023-02-22T02:29:59.883Z,13.70
2023-02-22T02:32:32.354Z,12.30
2023-02-22T02:35:07.980Z,13.70
2023-02-22T02:37:37.489Z,11.27
2023-02-22T02:40:11.471Z,12.93
2023-02-22T02:43:01.161Z,13.47
2023-02-22T02:45:36.277Z,13.13
2023-02-22T02:48:07.001Z,12.03
2023-02-22T02:50:43.701Z,13.47
2023-02-22T02:53:11.140Z,12.60
2023-02-22T02:55:38.197Z,12.30
2023-02-22T02:58:07.063Z,11.90
2023-02-22T03:00:39.405Z,11.87
2023-02-22T03:03:24.225Z,11.67
2023-02-22T03:05:59.798Z,11.40
2023-02-22T03:08:40.271Z,10.93
2023-02-22T03:11:16.862Z,11.60
2023-02-22T03:14:11.318Z,11.30
2023-02-22T03:16:52.722Z,11.97
2023-02-22T03:19:32.157Z,11.87
2023-02-22T03:22:04.592Z,11.63
2023-02-22T03:24:37.312Z,10.67
2023-02-22T03:27:09.678Z,12.00
2023-02-22T03:29:42.691Z,11.10
2023-02-22T03:32:15.789Z,11.97
2023-02-22T03:35:14.938Z,11.80
2023-02-22T03:37:45.344Z,11.30
2023-02-22T03:40:16.967Z,10.90
2023-02-22T03:42:48.739Z,11.27
2023-02-22T03:45:19.181Z,10.67
2023-02-22T03:47:52.550Z,11.30
2023-02-22T03:50:25.272Z,11.50
2023-02-22T03:52:52.529Z,11.33
2023-02-22T03:55:19.308Z,13.70
2023-02-22T03:57:52.259Z,14.80
2023-02-22T04:00:25.387Z,12.83
2023-02-22T04:02:51.915Z,14.40
2023-02-22T04:05:18.707Z,12.37
2023-02-22T04:07:45.834Z,14.10
2023-02-22T04:10:15.113Z,15.63
2023-02-22T04:12:41.606Z,16.37
2023-02-22T04:15:09.563Z,12.03
2023-02-22T04:17:35.991Z,12.33
2023-02-22T04:20:03.472Z,12.40
2023-02-22T04:22:29.963Z,14.00
2023-02-22T04:24:56.478Z,13.07
2023-02-22T04:27:22.870Z,14.50
2023-02-22T04:29:49.391Z,14.77
2023-02-22T04:32:16.412Z,16.30
2023-02-22T04:34:42.831Z,13.93
2023-02-22T04:37:10.369Z,13.70
2023-02-22T04:39:36.917Z,14.10
2023-02-22T04:42:03.532Z,15.20
2023-02-22T04:44:30.014Z,15.03
2023-02-22T04:46:57.495Z,15.63
2023-02-22T04:49:24.224Z,17.47
2023-02-22T04:51:50.639Z,15.70
2023-02-22T04:54:18.311Z,15.00
2023-02-22T04:56:45.297Z,17.83
2023-02-22T04:59:11.750Z,15.13
2023-02-22T05:01:38.868Z,15.87
2023-02-22T05:04:07.060Z,16.50
2023-02-22T05:06:34.070Z,16.60
2023-02-22T05:09:00.520Z,15.40
2023-02-22T05:11:26.967Z,15.90
2023-02-22T05:13:53.403Z,15.13
2023-02-22T05:16:19.915Z,16.90
2023-02-22T05:18:46.557Z,15.27
2023-02-22T05:21:13.598Z,15.40
2023-02-22T05:23:40.167Z,15.50
2023-02-22T05:26:06.633Z,15.07
2023-02-22T05:28:33.117Z,15.20
2023-02-22T05:30:59.632Z,16.07
2023-02-22T05:33:26.117Z,14.50
2023-02-22T05:35:52.649Z,14.33
2023-02-22T05:38:19.109Z,13.93
2023-02-22T05:40:45.617Z,12.90
2023-02-22T05:43:12.086Z,13.13
2023-02-22T05:45:38.618Z,13.20
2023-02-22T05:48:05.329Z,13.93
2023-02-22T05:50:33.075Z,13.57
2023-02-22T05:53:00.152Z,23.00
2023-02-22T05:55:26.894Z,14.20
2023-02-22T05:57:53.932Z,14.13
2023-02-22T06:00:27.801Z,13.30
2023-02-22T06:02:59.537Z,15.30
2023-02-22T06:05:27.067Z,14.37
2023-02-22T06:07:53.886Z,13.83
2023-02-22T06:10:20.742Z,13.97
2023-02-22T06:12:48.262Z,14.57
2023-02-22T06:15:19.649Z,12.87
2023-02-22T06:17:46.816Z,14.27
2023-02-22T06:20:16.754Z,13.40
2023-02-22T06:22:45.543Z,12.27
2023-02-22T06:25:15.876Z,12.67
2023-02-22T06:27:42.305Z,12.90
2023-02-22T06:30:13.143Z,13.17
2023-02-22T06:32:39.902Z,12.60
2023-02-22T06:35:07.084Z,12.20
2023-02-22T06:37:33.558Z,12.07
2023-02-22T06:40:04.862Z,11.43
2023-02-22T06:42:31.941Z,11.40
2023-02-22T06:44:58.354Z,9.87
2023-02-22T06:47:24.781Z,11.27
2023-02-22T06:49:55.914Z,10.47
2023-02-22T06:52:23.072Z,9.70
2023-02-22T06:54:50.461Z,10.23
2023-02-22T06:57:17.967Z,8.90
2023-02-22T06:59:44.593Z,8.23
2023-02-22T07:02:14.704Z,9.30
2023-02-22T07:04:43.410Z,9.60
2023-02-22T07:07:10.382Z,10.23
2023-02-22T07:09:36.843Z,10.87
2023-02-22T07:12:03.579Z,9.97
2023-02-22T07:14:30.014Z,11.67
2023-02-22T07:16:56.431Z,10.40
2023-02-22T07:19:23.559Z,11.40
2023-02-22T07:21:50.796Z,10.67
2023-02-22T07:24:17.245Z,11.50
2023-02-22T07:26:43.730Z,11.33
2023-02-22T07:29:11.309Z,11.30
2023-02-22T07:31:38.737Z,12.00
2023-02-22T07:34:05.536Z,12.20
2023-02-22T07:36:32.044Z,11.27
2023-02-22T07:38:58.437Z,11.33
2023-02-22T07:41:25.670Z,12.53
2023-02-22T07:43:52.240Z,11.93
2023-02-22T07:46:18.763Z,11.20
2023-02-22T07:48:45.191Z,12.87
2023-02-22T07:51:15.725Z,12.53
2023-02-22T07:53:42.456Z,13.23
2023-02-22T07:56:08.934Z,12.97
2023-02-22T07:58:35.503Z,13.07
2023-02-22T08:01:05.045Z,13.33
2023-02-22T08:03:36.413Z,12.73
2023-02-22T08:06:04.982Z,13.77
2023-02-22T08:08:31.701Z,13.87
2023-02-22T08:10:58.187Z,13.20
2023-02-22T08:13:24.632Z,13.33
2023-02-22T08:15:53.743Z,15.57
2023-02-22T08:18:21.715Z,14.33
2023-02-22T08:20:50.344Z,13.50
2023-02-22T08:23:17.973Z,14.57
2023-02-22T08:25:45.156Z,13.87
2023-02-22T08:28:15.155Z,14.93
2023-02-22T08:30:45.465Z,14.40
2023-02-22T08:33:15.835Z,16.60
2023-02-22T08:35:42.810Z,16.27
2023-02-22T08:38:17.487Z,15.63
2023-02-22T08:40:43.966Z,16.43
2023-02-22T08:43:10.452Z,17.13
2023-02-22T08:45:37.262Z,17.37
2023-02-22T08:48:04.000Z,16.87
2023-02-22T08:50:33.697Z,17.57
2023-02-22T08:53:02.350Z,18.00
2023-02-22T08:55:32.264Z,19.57
2023-02-22T08:58:01.366Z,17.47
2023-02-22T09:00:29.567Z,18.30
2023-02-22T09:02:56.158Z,18.50
2023-02-22T09:05:22.642Z,17.40
2023-02-22T09:07:49.207Z,17.30
2023-02-22T09:10:24.357Z,17.63
2023-02-22T09:12:58.330Z,17.57
2023-02-22T09:15:25.639Z,16.30
2023-02-22T09:17:53.137Z,17.70
2023-02-22T09:20:21.474Z,17.10
2023-02-22T09:22:49.249Z,16.07
2023-02-22T09:25:17.789Z,16.40
2023-02-22T09:27:47.894Z,16.60
2023-02-22T09:30:28.095Z,16.00
2023-02-22T09:33:00.239Z,16.10
2023-02-22T09:35:27.698Z,16.37
2023-02-22T09:37:59.530Z,16.80
2023-02-22T09:40:32.369Z,15.60
2023-02-22T09:43:14.226Z,17.67
2023-02-22T09:45:48.846Z,17.87
2023-02-22T09:48:22.181Z,17.53
2023-02-22T09:50:52.822Z,16.80
2023-02-22T09:53:32.415Z,15.20
2023-02-22T09:56:04.586Z,15.87
2023-02-22T09:58:33.361Z,16.10
2023-02-22T10:01:27.174Z,16.80
2023-02-22T10:04:44.947Z,15.40
2023-02-22T10:07:30.833Z,17.17
2023-02-22T10:09:58.640Z,16.80
2023-02-22T10:12:27.903Z,17.10
2023-02-22T10:15:31.169Z,17.20
2023-02-22T10:18:13.569Z,16.57
2023-02-22T10:21:02.543Z,16.17
2023-02-22T10:24:02.192Z,16.80
2023-02-22T10:26:36.681Z,16.60
2023-02-22T10:29:39.951Z,16.27
2023-02-22T10:32:16.495Z,15.07
2023-02-22T10:34:48.566Z,14.90
2023-02-22T10:37:26.032Z,14.97
2023-02-22T10:40:17.457Z,14.67
2023-02-22T10:42:44.794Z,13.43
2023-02-22T10:45:21.742Z,14.50
2023-02-22T10:47:49.839Z,14.13
2023-02-22T10:50:16.705Z,15.33
2023-02-22T10:52:43.334Z,15.13
2023-02-22T10:55:15.969Z,14.83
2023-02-22T10:57:46.959Z,13.73
2023-02-22T11:00:14.283Z,13.97
2023-02-22T11:02:52.449Z,14.00
2023-02-22T11:05:37.241Z,12.90
2023-02-22T11:08:22.571Z,11.60
2023-02-22T11:10:53.223Z,11.73
2023-02-22T11:13:31.086Z,10.40
2023-02-22T11:16:17.598Z,9.10
2023-02-22T11:18:44.433Z,9.20
2023-02-22T11:21:13.886Z,9.37
2023-02-22T11:23:44.931Z,8.97
2023-02-22T11:26:14.462Z,8.50
2023-02-22T11:28:51.009Z,8.53
2023-02-22T11:31:24.266Z,8.83
2023-02-22T11:36:42.701Z,8.60
2023-02-22T11:39:26.903Z,8.00
2023-02-22T11:41:55.772Z,8.70
2023-02-22T11:44:29.529Z,8.60
2023-02-22T11:47:06.998Z,9.10
2023-02-22T11:49:39.856Z,7.47
2023-02-22T11:52:17.592Z,8.13
2023-02-22T11:54:53.460Z,8.17
2023-02-22T11:57:26.108Z,8.57
2023-02-22T12:00:16.091Z,8.80
2023-02-22T12:03:04.826Z,8.87
2023-02-22T12:05:59.405Z,9.07
2023-02-22T12:08:41.143Z,9.57
2023-02-22T12:11:13.851Z,8.57
2023-02-22T12:14:07.686Z,8.30
2023-02-22T12:16:57.868Z,9.33
2023-02-22T12:19:39.403Z,9.67
2023-02-22T12:22:12.134Z,8.10
2023-02-22T12:24:48.888Z,8.13
2023-02-22T12:27:31.581Z,8.00
2023-02-22T12:30:23.620Z,8.33
2023-02-22T12:32:59.045Z,9.53
2023-02-22T12:35:34.802Z,7.20
2023-02-22T12:38:16.519Z,6.93
2023-02-22T12:40:45.877Z,7.33
2023-02-22T12:43:26.986Z,7.57
2023-02-22T12:46:05.324Z,7.53
2023-02-22T12:48:51.814Z,7.73
2023-02-22T12:51:31.614Z,9.20
2023-02-22T12:54:19.043Z,8.70
2023-02-22T12:56:55.537Z,7.63
2023-02-22T12:59:48.923Z,7.60
2023-02-22T13:02:22.488Z,7.80
2023-02-22T13:04:49.150Z,7.50
2023-02-22T13:07:33.370Z,9.03
2023-02-22T13:10:06.579Z,7.90
2023-02-22T13:13:03.857Z,7.87
2023-02-22T13:15:40.781Z,8.50
2023-02-22T13:18:18.285Z,7.60
2023-02-22T13:20:57.284Z,7.70
2023-02-22T13:23:39.125Z,7.57
2023-02-22T13:26:22.071Z,8.40
2023-02-22T13:29:15.796Z,7.87
2023-02-22T13:31:45.230Z,8.30
2023-02-22T13:34:16.498Z,7.50
2023-02-22T13:36:58.170Z,7.40
2023-02-22T13:39:37.001Z,6.87
2023-02-22T13:42:25.115Z,7.70
2023-02-22T13:45:04.076Z,7.60
2023-02-22T13:48:00.888Z,7.53
2023-02-22T13:50:30.382Z,6.90
2023-02-22T13:52:58.106Z,8.23
2023-02-22T13:55:31.456Z,7.40
2023-02-22T13:58:16.411Z,7.50
2023-02-22T14:00:51.122Z,7.87
2023-02-22T14:03:35.915Z,6.67
2023-02-22T14:06:07.797Z,8.30
2023-02-22T14:08:34.172Z,7.80
2023-02-22T14:11:32.522Z,8.00
2023-02-22T14:14:00.910Z,6.90
2023-02-22T14:16:30.091Z,7.30
2023-02-22T14:19:13.229Z,6.63
2023-02-22T14:21:58.333Z,7.73
2023-02-22T14:24:24.957Z,7.67
2023-02-22T14:27:03.949Z,7.77
2023-02-22T14:29:31.078Z,7.13
2023-02-22T14:32:07.445Z,7.40
2023-02-22T14:34:44.281Z,7.00
2023-02-22T14:37:27.968Z,7.57
2023-02-22T14:39:57.763Z,7.53
2023-02-22T14:42:31.961Z,6.83
2023-02-22T14:45:20.197Z,8.07
2023-02-22T14:48:13.906Z,7.00
2023-02-22T14:50:40.326Z,7.10
2023-02-22T14:53:06.956Z,7.40
2023-02-22T14:55:41.072Z,6.83
2023-02-22T14:58:20.592Z,7.87
2023-02-22T15:00:56.864Z,9.30
2023-02-22T15:03:38.543Z,8.93
2023-02-22T15:06:15.739Z,10.40
2023-02-22T15:08:48.593Z,10.03
2023-02-22T15:11:32.442Z,9.03
2023-02-22T15:14:00.804Z,7.37
2023-02-22T15:16:31.659Z,8.90
2023-02-22T15:19:00.843Z,7.83
2023-02-22T15:21:29.705Z,7.70
2023-02-22T15:24:00.360Z,7.57
2023-02-22T15:26:35.218Z,7.77
2023-02-22T15:29:04.208Z,8.07
2023-02-22T15:31:36.219Z,8.63
2023-02-22T15:34:15.863Z,8.57
2023-02-22T15:36:44.672Z,7.20
2023-02-22T15:39:29.356Z,8.47
2023-02-22T15:42:23.036Z,9.23
2023-02-22T15:44:58.045Z,8.00
2023-02-22T15:47:27.501Z,8.80
2023-02-22T15:50:26.555Z,8.33
2023-02-22T15:53:01.808Z,8.53
2023-02-22T15:55:35.413Z,8.43
2023-02-22T15:58:10.872Z,9.00
2023-02-22T16:00:43.375Z,9.33
2023-02-22T16:03:13.364Z,8.70
2023-02-22T16:05:47.160Z,9.47
2023-02-22T16:08:26.712Z,9.20
2023-02-22T16:11:00.502Z,9.60
2023-02-22T16:13:32.772Z,9.63
2023-02-22T16:16:05.805Z,8.23
2023-02-22T16:18:36.249Z,10.50
2023-02-22T16:21:13.867Z,9.60
2023-02-22T16:23:49.461Z,10.60
2023-02-22T16:26:31.191Z,9.80
2023-02-22T16:28:59.342Z,10.10
2023-02-22T16:31:37.785Z,10.20
2023-02-22T16:34:06.697Z,10.80
2023-02-22T16:36:47.593Z,10.37
2023-02-22T16:39:22.388Z,10.47
2023-02-22T16:41:51.100Z,10.40
2023-02-22T16:44:17.779Z,10.67
2023-02-22T16:46:44.391Z,10.60
2023-02-22T16:49:12.342Z,10.67
2023-02-22T16:51:49.352Z,10.80
2023-02-22T16:54:23.936Z,10.23
2023-02-22T16:56:51.174Z,10.77
2023-02-22T16:59:18.335Z,11.17
2023-02-22T17:01:45.062Z,10.50
2023-02-22T17:04:22.185Z,10.93
2023-02-22T17:06:48.910Z,11.27
2023-02-22T17:09:15.708Z,10.63
2023-02-22T17:11:43.688Z,11.43
2023-02-22T17:14:16.195Z,10.10
2023-02-22T17:16:43.026Z,10.57
2023-02-22T17:19:16.808Z,11.57
2023-02-22T17:21:43.362Z,11.30
2023-02-22T17:24:14.809Z,11.23
2023-02-22T17:26:41.594Z,10.80
2023-02-22T17:29:08.173Z,10.60
2023-02-22T17:31:35.249Z,10.53
2023-02-22T17:34:04.492Z,11.43
2023-02-22T17:36:32.271Z,12.60
2023-02-22T17:38:59.573Z,12.70
2023-02-22T17:41:26.449Z,11.47
2023-02-22T17:43:54.317Z,12.07
2023-02-22T17:46:21.139Z,12.90
2023-02-22T17:48:50.578Z,13.57
2023-02-22T17:51:17.355Z,12.30
2023-02-22T17:53:43.844Z,12.50
2023-02-22T17:56:18.733Z,12.43
2023-02-22T17:58:47.072Z,12.50
2023-02-22T18:01:20.930Z,12.67
2023-02-22T18:03:47.673Z,13.10
2023-02-22T18:06:22.485Z,12.43
2023-02-22T18:08:55.791Z,13.23
2023-02-22T18:11:26.367Z,13.83
2023-02-22T18:13:55.419Z,13.20
2023-02-22T18:16:22.551Z,12.43
2023-02-22T18:18:49.730Z,14.20
2023-02-22T18:21:16.391Z,12.57
2023-02-22T18:23:44.815Z,13.40
2023-02-22T18:26:17.367Z,13.33
2023-02-22T18:28:44.548Z,13.80
2023-02-22T18:31:14.497Z,13.10
2023-02-22T18:33:46.625Z,14.43
2023-02-22T18:36:14.408Z,14.17
2023-02-22T18:38:43.133Z,15.30
2023-02-22T18:41:15.387Z,13.50
2023-02-22T18:43:42.258Z,14.97
2023-02-22T18:46:11.129Z,14.10
2023-02-22T18:48:38.615Z,14.67
2023-02-22T18:51:08.857Z,15.13
2023-02-22T18:53:37.082Z,20.50
2023-02-22T18:56:08.702Z,14.87
2023-02-22T18:58:35.946Z,16.17
2023-02-22T19:01:03.530Z,16.87
2023-02-22T19:03:30.368Z,16.40
2023-02-22T19:06:01.692Z,16.87
2023-02-22T19:08:28.530Z,17.57
2023-02-22T19:10:54.990Z,16.20
2023-02-22T19:13:21.431Z,17.20
2023-02-22T19:15:48.909Z,17.27
2023-02-22T19:18:15.395Z,16.93
2023-02-22T19:20:41.938Z,17.57
2023-02-22T19:23:10.459Z,18.33
2023-02-22T19:25:41.084Z,18.80
2023-02-22T19:28:07.605Z,18.37
2023-02-22T19:30:34.110Z,17.63
2023-02-22T19:33:04.263Z,18.57
2023-02-22T19:35:30.867Z,17.77
2023-02-22T19:37:58.131Z,18.60
2023-02-22T19:40:24.773Z,20.07
2023-02-22T19:42:51.999Z,19.53
2023-02-22T19:45:20.124Z,18.10
2023-02-22T19:47:47.466Z,18.70
2023-02-22T19:50:14.869Z,18.40
2023-02-22T19:52:41.775Z,18.67
2023-02-22T19:55:14.733Z,19.27
2023-02-22T19:57:43.262Z,18.23
2023-02-22T20:00:13.194Z,19.13
2023-02-22T20:02:40.770Z,19.83
2023-02-22T20:05:10.284Z,19.43
2023-02-22T20:07:38.325Z,19.20
2023-02-22T20:10:07.085Z,21.77
2023-02-22T20:12:33.910Z,20.40
2023-02-22T20:15:00.486Z,21.23
2023-02-22T20:17:27.590Z,20.17
2023-02-22T20:19:54.281Z,21.53
2023-02-22T20:22:21.900Z,22.03
2023-02-22T20:24:49.204Z,20.30
2023-02-22T20:27:16.430Z,21.50
2023-02-22T20:29:42.932Z,20.40
2023-02-22T20:32:12.128Z,20.70
2023-02-22T20:34:38.747Z,22.03
2023-02-22T20:37:05.214Z,22.53
2023-02-22T20:39:31.699Z,22.43
2023-02-22T20:42:00.609Z,21.80
2023-02-22T20:44:27.361Z,22.30
2023-02-22T20:46:53.862Z,21.70
2023-02-22T20:49:21.270Z,23.33
2023-02-22T20:51:48.348Z,23.87
2023-02-22T20:54:15.661Z,24.20
2023-02-22T20:56:44.583Z,23.50
2023-02-22T20:59:13.841Z,23.83
2023-02-22T21:01:40.817Z,24.90
2023-02-22T21:04:10.051Z,25.70
2023-02-22T21:06:38.892Z,23.97
2023-02-22T21:09:10.273Z,29.43
2023-02-22T21:11:38.964Z,27.27
2023-02-22T21:14:05.554Z,26.10
2023-02-22T21:16:35.405Z,25.80
2023-02-22T21:19:04.879Z,26.43
2023-02-22T21:21:31.950Z,28.10
2023-02-22T21:24:01.681Z,29.00
2023-02-22T21:26:31.358Z,26.50
2023-02-22T21:29:00.836Z,28.80
2023-02-22T21:31:28.132Z,29.53
2023-02-22T21:33:56.147Z,28.77
2023-02-22T21:36:26.946Z,30.23
2023-02-22T21:38:59.054Z,27.80
2023-02-22T21:41:29.083Z,28.83
2023-02-22T21:43:57.626Z,28.30
2023-02-22T21:46:26.021Z,31.40
2023-02-22T21:48:52.556Z,30.70
2023-02-22T21:51:25.388Z,28.63
2023-02-22T21:53:54.403Z,29.23
2023-02-22T21:56:27.303Z,31.30
2023-02-22T21:59:04.833Z,29.87
2023-02-22T22:01:34.767Z,30.27
2023-02-22T22:04:02.471Z,30.10
2023-02-22T22:06:31.332Z,31.40
2023-02-22T22:08:59.944Z,31.70
2023-02-22T22:11:26.517Z,32.10
2023-02-22T22:13:57.588Z,30.87
2023-02-22T22:16:27.179Z,32.33
2023-02-22T22:18:55.007Z,31.63
2023-02-22T22:21:23.093Z,31.27
2023-02-22T22:23:54.335Z,32.07
2023-02-22T22:26:24.465Z,31.80
2023-02-22T22:28:55.904Z,34.43
2023-02-22T22:31:24.018Z,31.70
2023-02-22T22:33:50.794Z,32.80
2023-02-22T22:36:19.094Z,32.83
2023-02-22T22:38:48.454Z,32.50
2023-02-22T22:41:17.692Z,31.70
2023-02-22T22:43:48.152Z,33.50
2023-02-22T22:46:17.265Z,33.63
2023-02-22T22:48:46.918Z,32.50
2023-02-22T22:51:20.056Z,32.83
2023-02-22T22:53:48.531Z,33.80
2023-02-22T22:56:25.904Z,34.10
2023-02-22T22:58:57.626Z,34.07
2023-02-22T23:01:33.738Z,33.77
2023-02-22T23:04:06.345Z,34.77
2023-02-22T23:06:41.786Z,34.43
2023-02-22T23:09:21.759Z,32.20
2023-02-22T23:11:55.057Z,34.37
2023-02-22T23:14:24.361Z,35.30
2023-02-22T23:16:53.507Z,35.27
2023-02-22T23:19:20.375Z,34.13
2023-02-22T23:21:49.562Z,34.07
2023-02-22T23:24:19.230Z,35.10
2023-02-22T23:26:49.059Z,34.63
2023-02-22T23:29:17.497Z,33.83
2023-02-22T23:31:44.170Z,33.50
2023-02-22T23:34:13.932Z,34.47
2023-02-22T23:36:49.642Z,33.37
2023-02-22T23:39:20.619Z,35.90
2023-02-22T23:41:54.360Z,34.73
2023-02-22T23:44:21.976Z,33.43
2023-02-22T23:46:49.620Z,34.50
2023-02-22T23:49:20.332Z,33.27
2023-02-22T23:51:48.027Z,35.93
2023-02-22T23:54:19.264Z,36.23
2023-02-22T23:57:02.369Z,35.93
2023-02-22T23:59:30.543Z,34.93
